Latest Weather Observations for Melbourne Airport

IDV60901

Issued at 2:05 pm EDT Saturday 1 November 2014 (issued every 10 minutes, with the page automatically refreshed every 10 minutes)

About weather observations | Map of Melbourne area stations | Latest observations for Melbourne area | Other Formats
Station Details ID: 086282 Name: MELBOURNE AIRPORT Lat: -37.67 Lon: 144.83 Height: 113.4 m
Data from the previous 72 hours. | See also: Recent months at Melbourne Airport
Date/Time
EDT
Tmp

°C
App
Tmp
°C
Dew
Point
°C
Rel
Hum
%
Delta-T

°C
Wind Press
QNH
hPa
Press
MSL
hPa
Rain
since
9 am
mm
Dir
 
Spd
km/h
Gust
km/h
Spd
kts
Gust
kts
01/02:00pm 16.3 5.8 3.6 42 5.9 WSW 48 61 26 33 1007.8 1007.6 0.0
01/01:30pm 15.9 5.8 3.6 44 5.7 WSW 46 63 25 34 1007.7 1007.5 0.0
01/01:09pm 14.0 5.2 3.7 50 4.7 WSW 39 65 21 35 1007.4 1007.2 0.0
01/01:00pm 14.6 6.6 5.6 54 4.3 WSW 37 54 20 29 1007.3 1007.1 0.0
01/12:31pm 11.2 1.6 6.1 71 2.4 WSW 46 65 25 35 1007.4 1007.2 0.0
01/12:30pm 11.1 1.1 6.2 72 2.3 WSW 48 65 26 35 1007.4 1007.2 0.0
01/12:20pm 13.2 4.4 5.4 59 3.7 W 41 76 22 41 1007.1 1006.9 0.0
01/12:10pm 14.4 5.7 4.0 49 4.8 W 39 46 21 25 1006.8 1006.6 0.0
01/12:00pm 14.2 5.3 5.1 54 4.3 WSW 41 54 22 29 1006.7 1006.5 0.0
01/11:51am 13.6 6.2 5.1 56 4.0 SW 33 54 18 29 1006.5 1006.3 0.0
01/11:30am 14.6 7.1 6.1 56 4.1 WSW 35 48 19 26 1006.2 1006.0 0.0
01/11:02am 15.1 7.7 3.9 47 5.2 WSW 32 54 17 29 1005.9 1005.7 0.0
01/11:00am 15.6 8.4 5.1 49 5.0 WSW 32 44 17 24 1005.8 1005.6 0.0
01/10:30am 13.9 7.0 7.4 65 3.2 WSW 33 46 18 25 1005.7 1005.6 0.0
01/10:00am 12.4 6.1 7.5 72 2.4 WSW 30 39 16 21 1005.5 1005.4 0.0
01/09:30am 11.8 4.4 8.4 80 1.7 WSW 37 57 20 31 1005.4 1005.3 0.0
01/09:12am 12.3 6.7 10.0 86 1.2 SW 30 54 16 29 1004.9 1004.8 0.0
01/09:00am 12.6 6.6 10.1 85 1.3 WSW 32 46 17 25 1004.6 1004.5 6.6
01/08:50am 12.3 6.3 10.2 87 1.1 WSW 32 50 17 27 1004.3 1004.2 6.6
01/08:30am 12.3 6.6 11.2 93 0.6 SW 32 46 17 25 1003.9 1003.8 6.4
01/08:18am 13.9 10.6 11.7 86 1.2 WSW 20 28 11 15 1003.5 1003.4 6.0
01/08:00am 14.0 10.8 11.4 84 1.4 W 19 26 10 14 1002.9 1002.8 6.0
01/07:30am 13.7 11.1 11.9 89 1.0 W 17 24 9 13 1002.5 1002.4 6.0
01/07:15am 13.5 12.2 12.6 94 0.5 W 11 15 6 8 1002.2 1002.1 6.0
01/07:14am 13.5 12.2 12.6 94 0.5 W 11 15 6 8 1002.2 1002.1 6.0
01/07:00am 13.4 11.7 12.5 94 0.5 W 13 17 7 9 1001.9 1001.8 5.8
01/06:48am 13.3 12.3 12.4 94 0.5 W 9 11 5 6 1001.7 1001.6 5.8
01/06:30am 13.3 12.4 12.6 95 0.4 W 9 11 5 6 1001.9 1001.8 5.6
01/06:00am 13.7 12.1 12.8 94 0.5 WSW 13 15 7 8 1001.2 1001.1 2.2
01/05:30am 14.3 13.4 12.5 89 1.0 SSW 9 9 5 5 1000.3 1000.3 0.8
01/05:00am 15.0 13.8 11.5 79 1.9 SSE 9 11 5 6 999.5 999.5 0.2
01/04:30am 15.6 15.1 10.6 72 2.7 NNE 4 9 2 5 999.9 999.9 0.0
01/04:00am 15.6 15.6 9.9 69 3.0 CALM 0 0 0 0 1000.0 1000.0 0.0
01/03:30am 15.9 15.2 10.1 68 3.1 S 4 7 2 4 1000.8 1000.7 0.0
01/03:00am 16.3 12.3 9.2 63 3.7 SW 20 26 11 14 1001.0 1000.9 0.0
01/02:30am 16.6 12.7 9.6 63 3.7 WSW 20 28 11 15 1001.5 1001.4 0.0
01/02:00am 17.0 12.0 9.6 61 3.9 SW 26 33 14 18 1000.6 1000.5 0.0
01/01:30am 18.0 13.9 10.0 59 4.3 WSW 22 30 12 16 1000.2 1000.2 0.0
01/01:00am 18.7 15.4 9.7 56 4.8 WSW 17 20 9 11 1000.0 1000.0 0.0
01/12:30am 19.2 15.2 9.0 51 5.4 SW 20 30 11 16 999.8 999.8 0.0
01/12:00am 20.2 13.4 7.0 42 6.8 WSW 32 43 17 23 999.5 999.5 0.0
 
Date/Time
EDT
Tmp

°C
App
Tmp
°C
Dew
Point
°C
Rel
Hum
%
Delta-T

°C
Wind Press
QNH
hPa
Press
MSL
hPa
Rain
since
9 am
mm
Dir
 
Spd
km/h
Gust
km/h
Spd
kts
Gust
kts
31/11:30pm 23.8 17.0 2.9 25 10.1 WSW 28 50 15 27 998.8 998.7 0.0
31/11:00pm 25.5 20.0 1.7 21 11.5 NNW 20 28 11 15 997.3 997.2 0.0
31/10:00pm 25.0 19.6 2.4 23 11.0 N 20 26 11 14 997.7 997.6 0.0
31/09:30pm 25.3 19.6 2.7 23 11.0 N 22 28 12 15 997.9 997.8 0.0
31/09:00pm 26.6 20.7 1.7 20 12.1 N 22 30 12 16 998.0 997.9 0.0
31/08:30pm 27.1 22.2 2.0 19 12.2 N 17 20 9 11 998.2 998.1 0.0
31/08:00pm 27.6 22.8 2.7 20 12.4 N 17 22 9 12 998.4 998.3 0.0
31/07:36pm 28.1 23.1 3.4 20 12.4 N 19 26 10 14 998.6 998.5 0.0
31/07:30pm 29.1 24.2 1.9 17 13.4 N 17 22 9 12 998.7 998.6 0.0
31/07:00pm 30.1 24.5 -0.2 14 14.6 N 19 28 10 15 999.1 999.0 0.0
31/06:30pm 31.0 24.9 -2.0 12 15.4 NNW 20 28 11 15 999.4 999.4 0.0
31/06:00pm 31.0 22.5 -1.5 12 15.4 N 33 50 18 27 1000.0 1000.0 0.0
31/05:51pm 31.0 23.0 -2.5 11 15.5 NNW 30 50 16 27 1000.0 1000.0 0.0
31/05:30pm 31.4 23.5 -1.3 12 15.5 N 30 43 16 23 1000.5 1000.4 0.0
31/05:02pm 31.3 23.3 0.2 13 15.1 N 32 50 17 27 1000.8 1000.7 0.0
31/05:00pm 31.8 23.1 -0.3 12 15.6 N 35 50 19 27 1000.8 1000.7 0.0
31/04:30pm 31.9 23.5 -0.9 12 15.7 NNW 33 56 18 30 1001.3 1001.2 0.0
31/04:03pm 31.7 23.1 0.3 13 15.3 N 35 54 19 29 1001.5 1001.4 0.0
31/04:00pm 31.2 22.1 -0.5 13 15.3 N 37 50 20 27 1001.6 1001.5 0.0
31/03:37pm 31.6 23.3 0.0 13 15.3 N 33 54 18 29 1002.1 1002.0 0.0
31/03:30pm 30.8 22.7 -0.3 13 14.9 NNW 32 48 17 26 1002.3 1002.2 0.0
31/03:28pm 31.0 22.9 -0.2 13 15.0 NNW 32 50 17 27 1002.3 1002.2 0.0
31/03:00pm 30.8 22.0 1.4 15 14.6 N 37 54 20 29 1002.9 1002.8 0.0
31/02:30pm 30.2 21.2 -0.1 14 14.5 N 37 52 20 28 1003.6 1003.5 0.0
31/02:17pm 29.8 20.9 0.6 15 14.1 N 37 56 20 30 1003.8 1003.7 0.0
31/02:00pm 29.6 21.4 2.5 17 13.6 N 35 48 19 26 1004.1 1004.0 0.0
31/01:30pm 28.3 18.8 1.9 18 12.9 N 41 52 22 28 1004.6 1004.5 0.0
31/01:05pm 27.7 19.4 2.1 19 12.5 N 35 54 19 29 1005.0 1004.9 0.0
31/01:00pm 27.3 18.8 3.1 21 12.1 N 37 54 20 29 1005.2 1005.1 0.0
31/12:54pm 28.3 20.7 2.6 19 12.8 N 32 52 17 28 1005.4 1005.3 0.0
31/12:30pm 26.5 19.4 5.4 26 10.9 N 32 41 17 22 1006.3 1006.2 0.0
31/12:00pm 23.9 16.9 6.0 31 9.2 N 32 41 17 22 1006.9 1006.9 0.0
31/11:30am 24.3 17.2 5.5 29 9.6 N 32 39 17 21 1007.5 1007.5 0.0
31/11:00am 23.5 17.3 6.2 32 8.9 N 28 39 15 21 1008.0 1008.0 0.0
31/10:30am 23.5 17.0 6.5 33 8.8 N 30 39 16 21 1008.4 1008.4 0.0
31/10:00am 21.0 15.1 7.3 41 7.1 N 28 35 15 19 1008.8 1008.8 0.0
31/09:30am 20.8 15.2 7.2 41 7.0 N 26 37 14 20 1009.1 1009.1 0.0
31/09:00am 19.1 14.3 8.8 51 5.4 N 24 32 13 17 1009.5 1009.4 0.0
31/08:30am 15.8 12.0 9.9 68 3.1 N 20 26 11 14 1009.7 1009.6 0.0
31/08:00am 12.4 9.5 9.5 82 1.5 N 15 20 8 11 1009.9 1009.8 0.0
31/07:30am 10.4 7.6 8.4 87 1.0 N 13 17 7 9 1010.3 1010.2 0.0
31/07:00am 8.8 5.4 7.5 91 0.6 N 15 17 8 9 1010.5 1010.4 0.0
31/06:30am 8.4 4.5 7.1 91 0.6 N 17 19 9 10 1010.7 1010.6 0.0
31/06:00am 8.2 4.7 7.1 93 0.5 N 15 19 8 10 1010.7 1010.6 0.0
31/05:30am 8.9 5.2 7.9 93 0.5 N 17 19 9 10 1010.6 1010.5 0.0
31/05:00am 8.4 4.3 7.8 96 0.3 N 19 20 10 11 1010.5 1010.4 0.0
31/04:30am 8.4 5.8 7.6 95 0.4 N 11 13 6 7 1011.2 1011.1 0.0
31/04:00am 8.6 6.1 8.0 96 0.3 N 11 13 6 7 1011.3 1011.2 0.0
31/03:30am 8.4 6.7 7.6 95 0.4 N 6 11 3 6 1011.5 1011.4 0.0
31/03:00am 8.8 5.9 8.2 96 0.3 N 13 15 7 8 1012.0 1011.9 0.0
31/02:30am 9.0 7.2 8.0 93 0.5 NNW 7 9 4 5 1012.2 1012.1 0.0
31/02:00am 9.3 7.6 8.5 95 0.4 NNW 7 9 4 5 1012.7 1012.6 0.0
31/01:30am 9.3 7.2 8.3 93 0.5 N 9 11 5 6 1013.2 1013.1 0.0
31/01:00am 9.8 7.4 8.8 93 0.5 W 11 11 6 6 1014.1 1014.1 0.0
31/12:30am 10.4 8.9 9.0 91 0.7 SW 7 9 4 5 1014.1 1014.1 0.0
31/12:00am 11.2 9.9 9.2 87 1.0 W 6 7 3 4 1014.2 1014.2 0.0
 
Date/Time
EDT
Tmp

°C
App
Tmp
°C
Dew
Point
°C
Rel
Hum
%
Delta-T

°C
Wind Press
QNH
hPa
Press
MSL
hPa
Rain
since
9 am
mm
Dir
 
Spd
km/h
Gust
km/h
Spd
kts
Gust
kts
30/11:30pm 11.7 10.2 9.3 85 1.2 S 7 11 4 6 1014.2 1014.2 0.0
30/11:00pm 12.4 9.8 9.5 82 1.5 S 13 15 7 8 1014.1 1014.1 0.0
30/10:30pm 11.7 10.0 9.9 89 0.9 S 9 11 5 6 1014.2 1014.2 0.0
30/10:00pm 12.5 11.0 10.4 87 1.1 SW 9 11 5 6 1014.0 1014.0 0.0
30/09:30pm 12.5 10.6 10.6 88 1.0 SW 11 13 6 7 1013.9 1013.9 0.0
30/09:00pm 13.6 11.3 10.6 82 1.6 SSW 13 19 7 10 1013.7 1013.7 0.0
30/08:30pm 14.2 11.7 9.8 75 2.3 S 13 17 7 9 1013.5 1013.4 0.0
30/08:00pm 15.1 11.3 9.1 67 3.1 S 19 24 10 13 1013.2 1013.1 0.0
30/07:30pm 16.4 12.4 8.4 59 4.1 S 19 24 10 13 1012.9 1012.8 0.0
30/07:00pm 17.6 13.8 7.6 52 5.1 S 17 20 9 11 1013.0 1012.9 0.0
30/06:30pm 18.4 14.0 7.4 48 5.6 SSE 20 30 11 16 1012.9 1012.8 0.0
30/06:00pm 20.0 16.3 8.1 46 6.2 SSE 17 20 9 11 1012.7 1012.6 0.0
30/05:30pm 20.4 16.5 7.1 42 6.8 SSE 17 24 9 13 1012.6 1012.5 0.0
30/05:00pm 21.2 16.8 6.5 38 7.5 S 19 26 10 14 1012.8 1012.7 0.0
30/04:30pm 21.3 16.3 6.3 37 7.6 S 22 30 12 16 1012.7 1012.6 0.0
30/04:00pm 21.4 16.9 7.0 39 7.4 S 20 28 11 15 1012.5 1012.4 0.0
30/03:30pm 21.5 17.1 7.2 39 7.4 SSE 20 26 11 14 1012.6 1012.5 0.0
30/03:00pm 21.0 16.2 7.5 41 7.0 S 22 30 12 16 1012.9 1012.8 0.0
30/02:30pm 20.9 16.5 7.6 42 6.9 SSE 20 28 11 15 1013.1 1013.0 0.0
30/02:00pm 21.1 17.3 7.6 41 7.0 SSW 17 30 9 16 1013.5 1013.4 0.0
30/01:30pm 20.5 16.3 7.5 43 6.7 SSW 19 24 10 13 1013.7 1013.7 0.0
30/01:00pm 19.7 17.5 7.9 46 6.1 W 9 19 5 10 1014.0 1014.0 0.0
30/12:30pm 19.3 16.8 8.1 48 5.8 SSW 11 17 6 9 1014.4 1014.4 0.0
30/12:00pm 18.4 16.3 8.1 51 5.3 NE 9 20 5 11 1014.7 1014.7 0.0
30/11:30am 18.2 15.3 8.3 52 5.1 NW 13 19 7 10 1015.1 1015.1 0.0
30/11:00am 17.0 14.6 7.2 52 4.9 W 9 17 5 9 1015.6 1015.6 0.0
30/10:30am 16.1 13.4 7.5 56 4.3 SW 11 19 6 10 1015.9 1015.9 0.0
30/10:00am 16.3 13.4 8.0 58 4.2 WSW 13 19 7 10 1016.1 1016.1 0.0
30/09:30am 15.5 12.9 7.7 59 3.9 SW 11 17 6 9 1015.9 1015.9 0.0
30/09:00am 14.6 11.6 7.6 63 3.5 WSW 13 19 7 10 1016.0 1016.0 0.0
30/08:30am 14.4 11.4 7.8 64 3.3 SW 13 17 7 9 1016.0 1016.0 0.0
30/08:00am 13.8 11.0 8.4 70 2.7 WSW 13 17 7 9 1015.9 1015.9 0.0
30/07:30am 13.0 11.6 10.9 87 1.1 W 9 11 5 6 1015.5 1015.5 0.0
30/07:00am 12.5 11.1 10.8 89 0.9 WNW 9 11 5 6 1015.1 1015.1 0.0
30/06:30am 11.6 10.5 10.6 94 0.5 NE 7 9 4 5 1014.5 1014.5 0.0
30/06:00am 11.8 9.5 10.4 91 0.7 N 13 13 7 7 1014.8 1014.8 0.0
30/05:30am 12.0 11.5 10.9 93 0.6 N 4 9 2 5 1014.9 1014.9 0.0
30/05:00am 11.7 10.9 10.9 95 0.4 W 6 7 3 4 1014.8 1014.8 0.0
30/04:30am 11.4 9.1 10.4 94 0.5 N 13 13 7 7 1014.4 1014.4 0.0
30/04:00am 12.5 10.8 11.2 92 0.7 N 11 13 6 7 1014.4 1014.4 0.0
30/03:30am 12.7 11.9 11.0 89 0.9 N 6 7 3 4 1014.8 1014.8 0.0
30/03:00am 12.8 11.9 11.3 91 0.8 N 7 9 4 5 1014.8 1014.8 0.0
30/02:30am 12.9 12.5 11.2 89 0.9 WNW 4 7 2 4 1015.2 1015.2 0.0
30/02:00am 13.0 11.7 11.1 88 1.0 WNW 9 11 5 6 1015.6 1015.6 0.0
30/01:30am 12.8 11.5 11.1 89 0.9 W 9 11 5 6 1016.1 1016.1 0.0
30/01:00am 12.5 11.2 11.2 92 0.7 W 9 11 5 6 1016.3 1016.3 0.0
30/12:30am 12.0 10.6 10.9 93 0.6 W 9 11 5 6 1016.5 1016.5 0.0
30/12:00am 11.0 8.5 9.8 92 0.6 W 13 13 7 7 1016.6 1016.6 0.0
 
Date/Time
EDT
Tmp

°C
App
Tmp
°C
Dew
Point
°C
Rel
Hum
%
Delta-T

°C
Wind Press
QNH
hPa
Press
MSL
hPa
Rain
since
9 am
mm
Dir
 
Spd
km/h
Gust
km/h
Spd
kts
Gust
kts
29/11:30pm 11.1 8.9 9.5 90 0.8 WNW 11 11 6 6 1016.5 1016.5 0.0
29/11:00pm 11.6 9.8 9.6 87 1.0 WNW 9 11 5 6 1016.6 1016.6 0.0
29/10:30pm 12.0 10.3 9.9 87 1.1 W 9 9 5 5 1016.7 1016.7 0.0
29/10:00pm 12.7 11.4 9.8 82 1.5 WSW 7 9 4 5 1016.7 1016.7 0.0
29/09:30pm 13.5 11.4 9.8 78 1.9 S 11 15 6 8 1016.5 1016.5 0.0
29/09:00pm 14.3 11.4 9.7 74 2.4 S 15 20 8 11 1016.2 1016.2 0.0
29/08:30pm 14.7 12.1 9.5 71 2.7 S 13 20 7 11 1015.9 1015.9 0.0
29/08:00pm 15.4 11.5 8.8 65 3.4 S 19 24 10 13 1015.6 1015.6 0.0
29/07:30pm 16.2 11.3 8.6 60 3.9 S 24 30 13 16 1015.1 1015.1 0.0
29/07:00pm 17.3 11.5 7.9 54 4.8 S 28 37 15 20 1014.5 1014.5 0.0
29/06:30pm 21.2 17.7 7.3 40 7.2 SSE 15 20 8 11 1014.1 1014.1 0.0
29/06:00pm 21.3 17.5 7.4 40 7.2 SSE 17 22 9 12 1014.2 1014.2 0.0
29/05:30pm 21.8 18.0 7.4 39 7.5 S 17 26 9 14 1014.1 1014.1 0.0
29/05:00pm 22.2 20.0 6.3 35 8.1 W 7 17 4 9 1014.1 1014.1 0.0
29/04:30pm 22.9 21.0 6.9 35 8.3 WNW 6 19 3 10 1014.2 1014.2 0.0
29/04:00pm 22.2 18.7 7.4 38 7.7 SW 15 20 8 11 1014.5 1014.5 0.0
29/03:30pm 21.4 18.7 7.3 40 7.3 SSW 11 17 6 9 1014.8 1014.8 0.0
29/03:00pm 21.2 18.8 7.0 39 7.3 SW 9 15 5 8 1015.4 1015.4 0.0
29/02:30pm 21.7 19.5 8.0 41 7.2 NE 9 24 5 13 1015.8 1015.8 0.0

Latest Capital City Observations: Canberra | Sydney | Melbourne | Brisbane | Adelaide | Perth | Hobart | Darwin

Other Formats:

Comma delimited format used in spreadsheet applications
http://www.bom.gov.au/fwo/IDV60901/IDV60901.94866.axf

JavaScript Object Notation format (JSON) in row-major order
http://www.bom.gov.au/fwo/IDV60901/IDV60901.94866.json